Time;durP1;ratioP1;P1;durP2;ratioP2;P2;SDS_P1;SDS_P2;PMS_P1;PMS_P2;Temp;Humidity;BMP_temperature;BMP_pressure;BME280_temperature;BME280_humidity;BME280_pressure;Samples;Min_cycle;Max_cycle;Signal;HPM_P1;HPM_P2
2022/10/21 00:00:21;;;;;;;76.13;36.20;;;11.20;99.90;;;;;;5044398;28;20044;-45
2022/10/21 00:02:47;;;;;;;84.00;37.38;;;10.90;99.90;;;;;;5045972;28;20041;-45
2022/10/21 00:05:13;;;;;;;143.27;44.08;;;11.00;99.90;;;;;;5045615;28;20094;-44
2022/10/21 00:07:39;;;;;;;87.10;37.13;;;10.80;99.90;;;;;;5046189;28;20045;-45
2022/10/21 00:10:06;;;;;;;101.70;38.72;;;11.00;99.90;;;;;;5046069;28;20052;-44
2022/10/21 00:12:32;;;;;;;112.35;39.88;;;10.70;99.90;;;;;;5044458;28;20381;-45
2022/10/21 00:14:58;;;;;;;65.38;34.05;;;10.60;99.90;;;;;;5046136;28;20404;-44
2022/10/21 00:17:24;;;;;;;85.53;37.15;;;10.80;99.90;;;;;;5045474;28;20390;-46
2022/10/21 00:19:49;;;;;;;64.95;34.58;;;10.70;99.90;;;;;;5045902;28;20041;-45
2022/10/21 00:22:15;;;;;;;72.28;34.45;;;10.60;99.90;;;;;;5045444;28;20558;-45
2022/10/21 00:24:41;;;;;;;76.35;35.97;;;10.80;99.90;;;;;;5047426;28;20041;-44
2022/10/21 00:27:06;;;;;;;145.10;40.33;;;11.00;99.90;;;;;;5049224;28;20083;-44
2022/10/21 00:29:32;;;;;;;80.25;35.10;;;10.90;99.90;;;;;;5049283;28;20064;-44
2022/10/21 00:31:58;;;;;;;72.80;34.40;;;10.60;99.90;;;;;;5047773;28;20056;-45
2022/10/21 00:34:23;;;;;;;106.72;40.03;;;10.80;99.90;;;;;;5060312;28;20051;-44
2022/10/21 00:36:49;;;;;;;156.57;41.83;;;11.20;99.90;;;;;;5069553;28;20052;-44
2022/10/21 00:39:15;;;;;;;90.60;36.33;;;10.90;99.90;;;;;;5069249;28;20040;-47
2022/10/21 00:41:43;;;;;;;79.05;34.33;;;10.80;99.90;;;;;;5069339;28;20110;-44
2022/10/21 00:44:13;;;;;;;58.67;31.08;;;10.50;99.90;;;;;;5068994;28;20045;-45
2022/10/21 00:46:59;;;;;;;127.68;38.97;;;11.10;99.90;;;;;;5069162;28;20045;-45
2022/10/21 00:49:37;;;;;;;75.25;34.05;;;10.70;99.90;;;;;;5068452;28;20135;-44
2022/10/21 00:52:05;;;;;;;64.97;33.53;;;10.60;99.90;;;;;;5068768;28;20040;-46
2022/10/21 00:54:31;;;;;;;84.80;36.42;;;10.60;99.90;;;;;;5067040;28;20036;-44
2022/10/21 00:56:58;;;;;;;109.72;38.90;;;10.80;99.90;;;;;;5068639;28;20406;-45
2022/10/21 00:59:28;;;;;;;67.90;33.17;;;11.00;99.90;;;;;;5067001;28;20048;-44
2022/10/21 01:01:54;;;;;;;80.00;35.38;;;10.80;99.90;;;;;;5067372;28;20102;-45
2022/10/21 01:04:21;;;;;;;75.70;34.88;;;10.90;99.90;;;;;;5068623;28;20476;-44
2022/10/21 01:06:47;;;;;;;99.28;37.55;;;11.40;99.90;;;;;;5068773;28;20498;-46
2022/10/21 01:09:14;;;;;;;76.97;34.53;;;11.10;99.90;;;;;;5068761;28;20097;-44
2022/10/21 01:11:45;;;;;;;116.10;39.50;;;11.00;99.90;;;;;;5068451;28;20403;-45
2022/10/21 01:14:31;;;;;;;67.07;32.13;;;10.50;99.90;;;;;;5068375;28;20045;-45
2022/10/21 01:17:21;;;;;;;76.43;34.33;;;10.50;99.90;;;;;;5068189;28;20124;-44
2022/10/21 01:20:26;;;;;;;76.63;33.15;;;10.50;99.90;;;;;;5068438;28;20275;-45
2022/10/21 01:23:23;;;;;;;71.03;33.05;;;10.50;99.90;;;;;;5068669;28;20080;-43
2022/10/21 01:26:26;;;;;;;112.07;37.10;;;10.40;99.90;;;;;;5068386;28;20380;-45
2022/10/21 01:29:29;;;;;;;67.47;31.33;;;10.50;99.90;;;;;;5067950;28;20106;-46
2022/10/21 01:32:13;;;;;;;69.55;32.10;;;10.50;99.90;;;;;;5068363;28;20040;-44
2022/10/21 01:35:02;;;;;;;74.32;32.45;;;10.50;99.90;;;;;;5054378;28;20530;-45
2022/10/21 01:37:52;;;;;;;96.78;37.45;;;10.50;99.90;;;;;;5048135;28;20472;-44
2022/10/21 01:40:30;;;;;;;74.78;33.83;;;10.50;99.90;;;;;;5048438;28;20064;-44
2022/10/21 01:43:00;;;;;;;73.30;32.80;;;10.50;99.90;;;;;;5048075;28;20592;-45
2022/10/21 01:45:32;;;;;;;68.68;32.90;;;10.90;99.90;;;;;;5047804;28;20052;-44
2022/10/21 01:48:04;;;;;;;79.93;31.95;;;10.30;99.90;;;;;;5048300;28;20446;-45
2022/10/21 01:50:37;;;;;;;90.75;34.22;;;10.80;99.90;;;;;;5048410;28;20495;-45
2022/10/21 01:53:08;;;;;;;68.18;32.42;;;10.50;99.90;;;;;;5046826;28;20106;-44
2022/10/21 01:55:35;;;;;;;71.40;32.85;;;11.30;99.90;;;;;;5047658;28;20527;-45
2022/10/21 01:58:22;;;;;;;57.72;30.05;;;11.10;99.90;;;;;;5047523;28;20094;-45
2022/10/21 02:00:51;;;;;;;81.18;32.83;;;10.60;99.90;;;;;;5047761;28;20060;-45
2022/10/21 02:03:21;;;;;;;76.18;32.53;;;11.00;99.90;;;;;;5046027;28;20048;-45
2022/10/21 02:05:46;;;;;;;70.22;33.40;;;10.90;99.90;;;;;;5047358;28;20045;-44
2022/10/21 02:08:12;;;;;;;95.22;36.00;;;11.00;99.90;;;;;;5047503;28;20384;-44
2022/10/21 02:10:44;;;;;;;93.65;36.03;;;10.90;99.90;;;;;;5047033;28;20045;-45
2022/10/21 02:13:13;;;;;;;73.13;32.42;;;10.80;99.90;;;;;;5047357;28;20487;-45
2022/10/21 02:15:40;;;;;;;91.38;37.00;;;10.70;99.90;;;;;;5047011;28;20376;-44
2022/10/21 02:18:09;;;;;;;100.50;36.42;;;10.90;99.90;;;;;;5047765;28;20049;-44
2022/10/21 02:20:41;;;;;;;82.82;34.15;;;11.20;99.90;;;;;;5046741;28;20041;-46
2022/10/21 02:23:11;;;;;;;86.30;34.17;;;11.20;99.90;;;;;;5047116;28;20037;-44
2022/10/21 02:25:39;;;;;;;59.33;31.55;;;11.00;99.90;;;;;;5047006;28;20385;-44
2022/10/21 02:28:06;;;;;;;73.63;32.78;;;11.20;99.90;;;;;;5047161;28;20064;-44
2022/10/21 02:30:40;;;;;;;65.50;32.97;;;11.20;99.90;;;;;;5046980;28;20558;-45
2022/10/21 02:33:12;;;;;;;70.82;32.33;;;11.40;99.90;;;;;;5048172;28;20080;-46
2022/10/21 02:35:49;;;;;;;65.13;29.88;;;11.00;99.90;;;;;;5067344;28;20048;-44
2022/10/21 02:38:15;;;;;;;123.72;36.47;;;11.00;99.90;;;;;;5067479;28;20070;-44
2022/10/21 02:41:01;;;;;;;73.30;31.27;;;11.30;99.90;;;;;;5067003;28;20535;-44
2022/10/21 02:43:29;;;;;;;101.20;35.95;;;11.10;99.90;;;;;;5067264;28;20490;-45
2022/10/21 02:46:00;;;;;;;74.88;32.22;;;11.10;99.90;;;;;;5067049;28;20046;-45
2022/10/21 02:48:26;;;;;;;107.40;36.72;;;11.30;99.90;;;;;;5099835;28;20148;-45
2022/10/21 02:50:52;;;;;;;93.60;34.08;;;11.70;99.90;;;;;;5067119;28;20489;-44
2022/10/21 02:53:18;;;;;;;98.05;35.25;;;11.10;99.90;;;;;;5067947;28;20089;-44
2022/10/21 02:55:43;;;;;;;106.00;37.28;;;12.10;99.90;;;;;;5067266;28;20395;-44
2022/10/21 02:58:09;;;;;;;100.93;36.28;;;11.50;99.90;;;;;;5066309;28;20506;-44
2022/10/21 03:00:35;;;;;;;77.35;33.58;;;11.40;99.90;;;;;;5067173;28;20040;-45
2022/10/21 03:03:00;;;;;;;102.25;35.70;;;11.30;99.90;;;;;;5067714;28;20060;-44
2022/10/21 03:05:26;;;;;;;160.38;39.95;;;11.40;99.90;;;;;;5099510;28;20106;-43
2022/10/21 03:07:52;;;;;;;113.45;37.70;;;11.60;99.90;;;;;;5066848;28;20043;-44
2022/10/21 03:10:17;;;;;;;137.10;38.28;;;11.50;99.90;;;;;;5066524;28;20055;-45
2022/10/21 03:12:43;;;;;;;114.88;37.47;;;11.40;99.90;;;;;;5066296;28;20096;-44
2022/10/21 03:15:09;;;;;;;98.28;33.90;;;11.20;99.90;;;;;;5064931;28;20059;-44
2022/10/21 03:17:35;;;;;;;120.60;36.97;;;11.40;99.90;;;;;;5066325;28;20446;-44
2022/10/21 03:20:00;;;;;;;280.95;46.95;;;11.40;99.90;;;;;;5065027;28;20102;-45
2022/10/21 03:22:26;;;;;;;195.68;43.22;;;11.40;99.90;;;;;;5066387;28;20476;-45
2022/10/21 03:24:52;;;;;;;321.50;48.00;;;11.50;99.90;;;;;;5066354;28;20045;-44
2022/10/21 03:27:18;;;;;;;328.13;48.00;;;11.40;99.90;;;;;;5066498;28;20135;-45
2022/10/21 03:29:43;;;;;;;251.45;45.17;;;11.20;99.90;;;;;;5066292;28;20045;-44
2022/10/21 03:32:09;;;;;;;154.18;39.28;;;11.20;99.90;;;;;;5066371;28;20456;-43
2022/10/21 03:34:34;;;;;;;165.50;39.88;;;11.50;99.90;;;;;;5051787;28;20156;-46
2022/10/21 03:37:00;;;;;;;165.85;39.88;;;11.40;99.90;;;;;;5046321;28;20045;-46
2022/10/21 03:39:26;;;;;;;156.75;39.00;;;11.30;99.90;;;;;;5046673;28;20120;-44
2022/10/21 03:41:51;;;;;;;117.38;37.00;;;11.50;99.90;;;;;;5046031;28;20400;-45
2022/10/21 03:44:17;;;;;;;116.30;37.13;;;11.80;99.90;;;;;;5046198;28;20072;-44
2022/10/21 03:46:43;;;;;;;96.30;35.80;;;11.40;99.90;;;;;;5045875;28;20048;-44
2022/10/21 03:49:09;;;;;;;159.77;40.70;;;11.30;99.90;;;;;;5046248;28;20053;-45
2022/10/21 03:51:35;;;;;;;138.32;38.33;;;11.40;99.90;;;;;;5044758;28;20099;-44
2022/10/21 03:54:03;;;;;;;178.60;42.00;;;11.30;99.90;;;;;;5045897;28;20045;-44
2022/10/21 03:56:29;;;;;;;94.90;35.22;;;11.30;99.90;;;;;;5046181;28;20567;-44
2022/10/21 03:58:54;;;;;;;87.80;33.40;;;11.20;99.90;;;;;;5045857;28;20064;-45
2022/10/21 04:01:20;;;;;;;104.80;36.78;;;11.20;99.90;;;;;;5049920;28;20120;-44
2022/10/21 04:03:46;;;;;;;93.85;35.75;;;11.30;99.90;;;;;;5049860;28;20091;-44
2022/10/21 04:06:11;;;;;;;98.05;34.78;;;11.40;99.90;;;;;;5049912;28;20044;-44
2022/10/21 04:08:37;;;;;;;84.05;33.58;;;11.40;99.90;;;;;;5050209;28;20115;-44
2022/10/21 04:11:03;;;;;;;157.25;41.25;;;11.40;99.90;;;;;;5049817;28;20519;-44
2022/10/21 04:13:30;;;;;;;103.97;35.03;;;11.30;99.90;;;;;;5049808;28;20555;-45
2022/10/21 04:15:59;;;;;;;81.97;34.22;;;12.00;99.90;;;;;;5049623;28;20122;-45
2022/10/21 04:18:25;;;;;;;106.78;34.58;;;11.50;99.90;;;;;;5049772;28;20045;-45
2022/10/21 04:20:51;;;;;;;83.80;33.00;;;11.40;99.90;;;;;;5049287;28;20495;-43
2022/10/21 04:23:17;;;;;;;109.38;36.55;;;12.00;99.90;;;;;;5049814;28;20044;-44
2022/10/21 04:25:43;;;;;;;101.30;35.80;;;11.30;99.90;;;;;;5049437;28;20037;-44
2022/10/21 04:28:09;;;;;;;129.65;37.17;;;11.40;99.90;;;;;;5049519;28;20428;-44
2022/10/21 04:30:35;;;;;;;109.10;35.13;;;11.40;99.90;;;;;;5050122;28;20055;-45
2022/10/21 04:33:00;;;;;;;97.88;35.60;;;11.60;99.90;;;;;;5050035;28;20055;-44
2022/10/21 04:35:26;;;;;;;119.72;36.28;;;11.30;99.90;;;;;;5028760;28;20045;-44
2022/10/21 04:37:52;;;;;;;133.45;40.70;;;11.60;99.90;;;;;;5029564;28;20055;-44
2022/10/21 04:40:17;;;;;;;83.45;34.08;;;11.40;99.90;;;;;;5029553;28;20404;-44
2022/10/21 04:42:47;;;;;;;88.55;34.72;;;11.60;99.90;;;;;;5029616;28;20049;-44
2022/10/21 04:45:13;;;;;;;85.80;33.20;;;12.20;99.90;;;;;;5029613;28;20045;-45
2022/10/21 04:47:38;;;;;;;80.80;33.50;;;11.50;99.90;;;;;;5029748;28;20045;-44
2022/10/21 04:50:04;;;;;;;97.13;34.65;;;11.30;99.90;;;;;;5029792;28;20045;-44
2022/10/21 04:52:30;;;;;;;101.72;35.78;;;11.20;99.90;;;;;;5029339;28;20471;-45
2022/10/21 04:54:56;;;;;;;83.50;34.63;;;11.20;99.90;;;;;;5028921;28;20136;-44
2022/10/21 04:57:21;;;;;;;82.47;32.05;;;11.20;99.90;;;;;;5028880;28;20377;-43
2022/10/21 04:59:47;;;;;;;67.25;30.92;;;12.00;99.90;;;;;;5029558;28;20439;-45
2022/10/21 05:02:13;;;;;;;79.75;32.20;;;11.10;99.90;;;;;;5029037;28;20041;-44
2022/10/21 05:04:38;;;;;;;75.60;31.42;;;11.20;99.90;;;;;;5028994;28;20360;-44
2022/10/21 05:07:04;;;;;;;91.30;32.58;;;11.10;99.90;;;;;;5028595;28;20120;-45
2022/10/21 05:09:30;;;;;;;73.05;31.67;;;11.90;99.90;;;;;;5028984;28;20045;-44
2022/10/21 05:11:56;;;;;;;75.80;31.42;;;11.30;99.90;;;;;;5028125;28;20045;-44
2022/10/21 05:14:21;;;;;;;72.18;31.42;;;11.10;99.90;;;;;;5028730;28;20049;-43
2022/10/21 05:16:47;;;;;;;74.85;32.25;;;11.40;99.90;;;;;;5028374;28;20072;-43
2022/10/21 05:19:13;;;;;;;144.32;37.55;;;11.10;99.90;;;;;;5027289;28;20057;-44
2022/10/21 05:21:38;;;;;;;107.07;34.83;;;11.10;99.90;;;;;;5028747;28;20044;-44
2022/10/21 05:24:04;;;;;;;120.38;35.88;;;11.00;99.90;;;;;;5028548;28;20044;-44
2022/10/21 05:26:30;;;;;;;69.97;30.02;;;11.00;99.90;;;;;;5028497;28;20484;-44
2022/10/21 05:28:57;;;;;;;110.15;34.42;;;12.00;99.90;;;;;;5028173;28;20547;-44
2022/10/21 05:31:23;;;;;;;85.80;32.45;;;11.10;99.90;;;;;;5028828;28;20097;-44
2022/10/21 05:33:49;;;;;;;72.32;30.83;;;11.30;99.90;;;;;;5041799;28;20125;-44
2022/10/21 05:36:15;;;;;;;76.30;29.55;;;11.00;99.90;;;;;;5068112;28;20557;-45
2022/10/21 05:38:40;;;;;;;84.13;32.13;;;11.10;99.90;;;;;;5068126;28;20048;-43
2022/10/21 05:41:06;;;;;;;71.28;31.02;;;10.80;99.90;;;;;;5067873;28;20098;-43
2022/10/21 05:43:32;;;;;;;144.30;35.83;;;10.80;99.90;;;;;;5068289;28;20414;-44
2022/10/21 05:45:58;;;;;;;64.72;28.02;;;11.20;99.90;;;;;;5068498;28;20036;-45
2022/10/21 05:48:24;;;;;;;78.00;30.27;;;11.10;99.90;;;;;;5068341;28;20044;-44
2022/10/21 05:50:52;;;;;;;195.75;41.50;;;11.00;99.90;;;;;;5068080;28;20052;-43
2022/10/21 05:53:18;;;;;;;68.45;30.00;;;10.90;99.90;;;;;;5066233;28;20052;-44
2022/10/21 05:55:43;;;;;;;70.35;30.92;;;10.80;99.90;;;;;;5067900;28;20052;-44
2022/10/21 05:58:09;;;;;;;77.53;30.80;;;11.10;99.90;;;;;;5067558;28;20596;-44
2022/10/21 06:00:35;;;;;;;86.10;32.15;;;10.80;99.90;;;;;;5067917;28;20093;-44
2022/10/21 06:03:01;;;;;;;119.53;35.25;;;10.90;99.90;;;;;;5067796;28;20123;-44
2022/10/21 06:05:27;;;;;;;111.80;35.20;;;10.80;99.90;;;;;;5066269;28;20097;-43
2022/10/21 06:07:52;;;;;;;129.85;36.03;;;10.80;99.90;;;;;;5066238;28;20063;-44
2022/10/21 06:10:18;;;;;;;72.47;28.83;;;11.10;99.90;;;;;;5067539;28;20080;-44
2022/10/21 06:12:43;;;;;;;97.43;32.47;;;10.90;99.90;;;;;;5067925;28;20045;-46
2022/10/21 06:15:09;;;;;;;83.75;31.92;;;10.80;99.90;;;;;;5067418;28;20551;-45
2022/10/21 06:17:35;;;;;;;105.50;34.47;;;11.20;99.90;;;;;;5067549;28;20108;-46
2022/10/21 06:20:01;;;;;;;91.95;32.35;;;10.80;99.90;;;;;;5067438;28;20483;-43
2022/10/21 06:22:28;;;;;;;85.40;31.58;;;10.80;99.90;;;;;;5066592;28;20041;-45
2022/10/21 06:24:53;;;;;;;79.55;31.83;;;10.70;99.90;;;;;;5067159;28;20036;-44
2022/10/21 06:27:19;;;;;;;209.35;40.53;;;10.90;99.90;;;;;;5066771;28;20094;-43
2022/10/21 06:29:45;;;;;;;167.80;37.78;;;10.70;99.90;;;;;;5067060;28;20059;-44
2022/10/21 06:32:11;;;;;;;133.13;35.08;;;10.60;99.90;;;;;;5067229;28;20040;-44
2022/10/21 06:34:37;;;;;;;87.40;31.52;;;10.50;99.90;;;;;;5054612;28;20124;-44
2022/10/21 06:37:03;;;;;;;91.85;33.38;;;10.50;99.90;;;;;;5047077;28;20045;-45
2022/10/21 06:39:29;;;;;;;164.80;37.72;;;10.60;99.90;;;;;;5047157;28;20037;-44
2022/10/21 06:41:54;;;;;;;126.35;36.30;;;10.50;99.90;;;;;;5047089;28;20094;-43
2022/10/21 06:44:20;;;;;;;97.78;32.65;;;10.50;99.90;;;;;;5046671;28;20443;-44
2022/10/21 06:46:45;;;;;;;104.03;33.13;;;10.50;99.90;;;;;;5047288;28;20476;-45
2022/10/21 06:49:11;;;;;;;86.47;31.20;;;11.00;99.90;;;;;;5046916;28;20045;-43
2022/10/21 06:51:37;;;;;;;88.78;31.48;;;11.40;99.90;;;;;;5046859;28;20657;-45
2022/10/21 06:54:02;;;;;;;131.98;36.20;;;10.60;99.90;;;;;;5046434;28;20045;-44
2022/10/21 06:56:28;;;;;;;95.03;33.22;;;11.50;99.90;;;;;;5046529;28;20047;-44
2022/10/21 06:58:57;;;;;;;90.93;33.40;;;10.80;99.90;;;;;;5046405;28;20041;-44
2022/10/21 07:01:27;;;;;;;79.35;31.75;;;10.90;99.90;;;;;;5046562;28;20495;-43
2022/10/21 07:03:54;;;;;;;95.35;32.05;;;10.80;99.90;;;;;;5046881;28;20041;-44
2022/10/21 07:06:20;;;;;;;83.95;33.33;;;11.60;99.90;;;;;;5045594;28;20055;-45
2022/10/21 07:08:46;;;;;;;104.35;34.22;;;10.80;99.90;;;;;;5046647;28;20053;-43
2022/10/21 07:11:12;;;;;;;84.85;32.55;;;10.80;99.90;;;;;;5045907;28;20377;-44
2022/10/21 07:13:38;;;;;;;85.80;31.45;;;11.50;99.90;;;;;;5044872;28;20127;-44
2022/10/21 07:16:17;;;;;;;75.45;31.40;;;10.80;99.90;;;;;;5045961;28;20456;-43
2022/10/21 07:18:43;;;;;;;87.30;33.75;;;10.90;99.90;;;;;;5043805;28;20051;-43
2022/10/21 07:21:14;;;;;;;89.38;33.05;;;10.90;99.90;;;;;;5046426;28;20041;-46
2022/10/21 07:23:40;;;;;;;177.32;40.45;;;11.20;99.90;;;;;;5043349;28;20048;-45
2022/10/21 07:26:07;;;;;;;79.72;32.33;;;11.00;99.90;;;;;;5045896;28;20056;-44
2022/10/21 07:28:33;;;;;;;85.80;33.03;;;11.30;99.90;;;;;;5045428;28;20059;-43
2022/10/21 07:30:59;;;;;;;73.82;31.02;;;11.20;99.90;;;;;;5057412;28;20049;-44
2022/10/21 07:33:25;;;;;;;98.45;33.78;;;11.20;99.90;;;;;;5052667;28;20446;-45
2022/10/21 07:35:51;;;;;;;82.63;31.88;;;11.30;99.90;;;;;;5054190;28;20426;-44
2022/10/21 07:38:17;;;;;;;101.53;36.63;;;11.40;99.90;;;;;;5050023;28;20161;-45
2022/10/21 07:40:43;;;;;;;100.38;34.47;;;11.40;99.90;;;;;;5050271;28;20423;-44
2022/10/21 07:43:10;;;;;;;156.65;38.80;;;11.70;99.90;;;;;;5049786;28;20102;-45
2022/10/21 07:45:42;;;;;;;97.38;35.08;;;12.00;99.90;;;;;;5049920;28;20041;-45
2022/10/21 07:48:08;;;;;;;90.45;34.63;;;11.50;99.90;;;;;;5047715;28;20431;-44
2022/10/21 07:50:34;;;;;;;95.57;33.28;;;11.60;99.90;;;;;;5049692;28;20047;-45
2022/10/21 07:53:01;;;;;;;78.32;32.80;;;11.70;99.90;;;;;;5049672;28;20041;-44
2022/10/21 07:55:27;;;;;;;79.82;32.50;;;11.70;99.90;;;;;;5049834;28;20041;-44
2022/10/21 07:57:53;;;;;;;107.78;36.53;;;11.80;99.90;;;;;;5048266;28;20044;-44
2022/10/21 08:00:19;;;;;;;134.30;37.67;;;11.80;99.90;;;;;;5049593;28;20037;-44
2022/10/21 08:02:45;;;;;;;90.43;35.00;;;11.90;99.90;;;;;;5049671;28;20289;-44
2022/10/21 08:05:11;;;;;;;79.30;32.55;;;12.10;99.90;;;;;;5049356;28;20496;-44
2022/10/21 08:07:36;;;;;;;94.93;36.85;;;12.00;99.90;;;;;;5049276;28;20041;-46
2022/10/21 08:10:04;;;;;;;82.68;34.25;;;12.30;99.90;;;;;;5048827;28;20048;-47
2022/10/21 08:12:29;;;;;;;81.15;32.67;;;12.40;99.90;;;;;;5080803;28;20032;-44
2022/10/21 08:14:55;;;;;;;165.27;41.50;;;12.40;99.90;;;;;;5049056;28;20415;-44
2022/10/21 08:17:21;;;;;;;70.20;31.63;;;12.60;99.90;;;;;;5048272;28;20048;-45
2022/10/21 08:19:47;;;;;;;70.50;32.10;;;12.80;99.90;;;;;;5048626;28;20036;-45
2022/10/21 08:22:12;;;;;;;69.57;32.28;;;12.80;99.90;;;;;;5048916;28;20041;-45
2022/10/21 08:24:38;;;;;;;169.95;41.03;;;12.80;99.90;;;;;;5048245;28;20108;-45
2022/10/21 08:27:04;;;;;;;58.63;30.63;;;13.00;99.90;;;;;;5048822;28;20084;-45
2022/10/21 08:29:30;;;;;;;76.10;32.30;;;13.10;99.90;;;;;;5048511;28;20601;-44
2022/10/21 08:31:55;;;;;;;62.85;30.80;;;13.10;99.90;;;;;;5049059;28;20041;-46
2022/10/21 08:34:21;;;;;;;57.47;28.40;;;13.20;99.90;;;;;;5048599;28;20076;-45
2022/10/21 08:36:46;;;;;;;57.95;29.33;;;13.20;99.90;;;;;;5047530;28;20104;-44
2022/10/21 08:39:12;;;;;;;54.22;28.88;;;13.60;99.90;;;;;;5049238;28;20072;-45
2022/10/21 08:41:56;;;;;;;56.58;29.50;;;13.30;99.90;;;;;;5048786;28;20587;-47
2022/10/21 08:44:25;;;;;;;124.15;35.35;;;13.30;99.90;;;;;;5048860;28;20044;-45
2022/10/21 08:47:02;;;;;;;83.78;30.38;;;13.40;99.90;;;;;;5047102;28;20048;-46
2022/10/21 08:49:50;;;;;;;52.88;27.98;;;13.40;99.90;;;;;;5049276;28;20489;-44
2022/10/21 08:52:21;;;;;;;54.55;27.63;;;13.40;99.90;;;;;;5048787;28;20551;-46
2022/10/21 08:54:59;;;;;;;68.25;29.98;;;13.40;99.90;;;;;;5049047;28;20037;-45
2022/10/21 08:57:26;;;;;;;63.90;28.73;;;13.50;99.90;;;;;;5047232;28;20300;-44
2022/10/21 08:59:53;;;;;;;52.95;28.33;;;13.70;99.90;;;;;;5048474;28;20041;-46
2022/10/21 09:02:41;;;;;;;46.53;26.30;;;13.80;99.90;;;;;;5048886;28;20037;-44
2022/10/21 09:05:26;;;;;;;50.13;26.13;;;13.90;99.90;;;;;;5048732;28;20060;-46
2022/10/21 09:08:09;;;;;;;47.97;25.65;;;13.90;99.90;;;;;;5046917;28;20041;-44
2022/10/21 09:10:47;;;;;;;66.90;27.83;;;13.90;99.90;;;;;;5048119;28;20040;-46
2022/10/21 09:13:24;;;;;;;55.25;26.85;;;14.00;99.90;;;;;;5047915;28;20057;-44
2022/10/21 09:16:35;;;;;;;55.33;27.23;;;14.00;99.90;;;;;;5047625;28;20036;-45
2022/10/21 09:19:21;;;;;;;50.65;25.23;;;14.00;99.90;;;;;;5023232;28;20721;-44
2022/10/21 09:22:05;;;;;;;43.47;24.80;;;14.00;99.90;;;;;;5047666;28;20067;-45
2022/10/21 09:24:59;;;;;;;52.17;26.70;;;14.10;99.90;;;;;;5047051;28;20048;-46
2022/10/21 09:27:25;;;;;;;64.15;26.17;;;14.20;99.90;;;;;;5044113;28;20060;-45
2022/10/21 09:30:00;;;;;;;57.13;26.17;;;14.40;99.90;;;;;;5047630;28;20469;-45
2022/10/21 09:32:39;;;;;;;39.83;22.42;;;14.40;99.90;;;;;;5047439;28;20045;-44
2022/10/21 09:35:18;;;;;;;37.42;22.50;;;14.60;99.90;;;;;;5047580;28;20129;-44
2022/10/21 09:37:53;;;;;;;47.08;23.45;;;14.70;99.90;;;;;;5047574;28;20052;-45
2022/10/21 09:40:30;;;;;;;34.17;19.75;;;14.90;99.90;;;;;;5048034;28;20377;-46
2022/10/21 09:42:57;;;;;;;28.92;18.80;;;15.00;99.90;;;;;;5045232;28;20040;-49
2022/10/21 09:45:37;;;;;;;37.40;21.48;;;15.10;99.90;;;;;;5047607;28;20177;-44
2022/10/21 09:48:18;;;;;;;34.33;20.45;;;15.30;99.90;;;;;;5047217;28;20105;-45
2022/10/21 09:50:53;;;;;;;30.90;19.40;;;15.50;99.90;;;;;;5046228;28;20047;-44
2022/10/21 09:53:32;;;;;;;37.25;19.98;;;15.60;99.90;;;;;;5046867;28;20037;-46
2022/10/21 09:56:03;;;;;;;28.02;17.42;;;15.60;99.90;;;;;;5046834;28;20032;-46
2022/10/21 09:58:38;;;;;;;28.73;17.92;;;15.60;99.90;;;;;;5046186;28;20033;-46
2022/10/21 10:01:05;;;;;;;32.75;18.02;;;15.60;99.90;;;;;;5045841;28;20040;-44
2022/10/21 10:03:36;;;;;;;29.88;18.02;;;15.60;99.90;;;;;;5046684;28;20063;-44
2022/10/21 10:06:04;;;;;;;31.52;17.90;;;15.60;99.90;;;;;;5045524;28;20383;-44
2022/10/21 10:08:43;;;;;;;30.65;17.38;;;15.60;99.90;;;;;;5046668;28;20071;-44
2022/10/21 10:11:08;;;;;;;30.25;18.15;;;15.70;99.90;;;;;;5046373;28;20399;-45
2022/10/21 10:13:40;;;;;;;28.13;17.67;;;15.70;99.90;;;;;;5047169;28;20037;-45
2022/10/21 10:16:21;;;;;;;26.20;17.77;;;15.70;99.90;;;;;;5045796;28;20059;-44
2022/10/21 10:18:52;;;;;;;25.83;15.02;;;15.80;99.90;;;;;;5046094;28;20036;-46
2022/10/21 10:21:21;;;;;;;21.45;14.65;;;15.60;99.90;;;;;;5046605;28;20601;-45
2022/10/21 10:23:55;;;;;;;25.63;16.35;;;15.60;99.90;;;;;;5047126;28;20083;-46
2022/10/21 10:26:28;;;;;;;26.67;16.52;;;15.60;99.90;;;;;;5047115;28;20123;-45
2022/10/21 10:29:03;;;;;;;29.30;16.83;;;15.50;99.90;;;;;;5043884;28;20056;-44
2022/10/21 10:31:34;;;;;;;26.05;15.60;;;15.80;99.90;;;;;;5046869;28;20049;-46
2022/10/21 10:34:04;;;;;;;24.08;14.98;;;15.60;99.90;;;;;;5047977;28;20426;-46
2022/10/21 10:36:36;;;;;;;22.02;14.00;;;15.60;99.90;;;;;;5046344;28;20045;-46
2022/10/21 10:39:04;;;;;;;25.25;16.15;;;15.60;99.90;;;;;;5047038;28;20072;-46
2022/10/21 10:41:51;;;;;;;25.48;14.38;;;15.60;99.90;;;;;;5046907;28;20508;-45
2022/10/21 10:44:32;;;;;;;25.17;16.13;;;15.70;99.90;;;;;;5045182;28;20037;-48
2022/10/21 10:47:00;;;;;;;20.60;15.00;;;15.70;99.90;;;;;;5045207;28;20041;-46
2022/10/21 10:49:32;;;;;;;23.02;13.68;;;15.80;99.90;;;;;;5047053;28;20041;-45
2022/10/21 10:52:09;;;;;;;25.95;15.85;;;15.80;99.90;;;;;;5046466;28;20037;-44
2022/10/21 10:54:36;;;;;;;23.33;15.20;;;15.90;99.90;;;;;;5045246;28;20033;-47
2022/10/21 10:57:22;;;;;;;19.98;13.25;;;15.90;99.90;;;;;;5045666;28;20571;-45
2022/10/21 11:00:16;;;;;;;24.10;14.70;;;15.90;99.90;;;;;;5046137;28;20029;-45
2022/10/21 11:03:06;;;;;;;21.52;13.98;;;16.00;99.90;;;;;;5045369;28;20065;-47
2022/10/21 11:05:52;;;;;;;17.60;12.63;;;15.80;99.90;;;;;;5044903;28;20468;-45
2022/10/21 11:08:29;;;;;;;19.90;12.23;;;15.90;99.90;;;;;;5046255;28;20415;-45
2022/10/21 11:11:24;;;;;;;17.45;11.70;;;16.00;99.90;;;;;;5045146;28;20041;-44
2022/10/21 11:13:52;;;;;;;14.90;11.15;;;16.00;99.90;;;;;;5045197;28;20110;-45
2022/10/21 11:16:36;;;;;;;21.27;13.80;;;15.90;99.90;;;;;;5045602;28;20044;-45
2022/10/21 11:19:24;;;;;;;16.88;11.75;;;16.00;99.90;;;;;;5045811;28;20041;-46
2022/10/21 11:22:12;;;;;;;15.30;10.82;;;16.00;99.90;;;;;;5044615;28;20458;-45
2022/10/21 11:24:56;;;;;;;14.82;11.57;;;16.00;99.90;;;;;;5046966;28;20140;-47
2022/10/21 11:27:37;;;;;;;13.45;10.73;;;16.00;99.90;;;;;;5046909;28;20036;-47
2022/10/21 11:30:16;;;;;;;16.33;10.52;;;16.00;99.90;;;;;;5045885;28;20526;-48
2022/10/21 11:32:53;;;;;;;18.85;11.40;;;16.00;99.90;;;;;;5047205;28;20095;-47
2022/10/21 11:35:44;;;;;;;17.52;11.02;;;16.00;99.90;;;;;;5065521;28;20505;-49
2022/10/21 11:38:38;;;;;;;19.48;11.43;;;14.50;99.90;;;;;;5067088;28;20084;-45
2022/10/21 11:41:11;;;;;;;15.90;11.13;;;16.10;99.90;;;;;;5066375;28;20041;-47
2022/10/21 11:43:45;;;;;;;14.10;9.85;;;16.10;99.90;;;;;;5065020;28;20056;-46
2022/10/21 11:46:47;;;;;;;12.82;8.68;;;16.10;99.90;;;;;;5064844;28;20470;-46
2022/10/21 11:49:34;;;;;;;15.13;10.70;;;16.20;99.90;;;;;;5066360;28;20044;-46
2022/10/21 11:52:32;;;;;;;16.42;10.30;;;16.20;99.90;;;;;;5066190;28;20087;-47
2022/10/21 11:55:22;;;;;;;15.65;9.75;;;16.20;99.90;;;;;;5063729;28;20106;-46
2022/10/21 11:58:03;;;;;;;17.15;10.45;;;16.20;99.90;;;;;;5065922;28;20079;-46
2022/10/21 12:00:39;;;;;;;17.20;9.82;;;16.30;99.90;;;;;;5066239;28;20044;-46
2022/10/21 12:03:26;;;;;;;15.10;9.65;;;16.20;99.90;;;;;;5066070;28;20484;-46
2022/10/21 12:06:01;;;;;;;12.70;8.65;;;16.30;99.90;;;;;;5066521;28;20389;-46
2022/10/21 12:08:35;;;;;;;15.57;9.88;;;16.30;99.90;;;;;;5066531;28;20506;-45
2022/10/21 12:11:22;;;;;;;14.35;8.25;;;16.30;99.90;;;;;;5066087;28;20315;-46
2022/10/21 12:13:56;;;;;;;13.13;8.65;;;16.30;99.90;;;;;;5065851;28;20044;-47
2022/10/21 12:16:29;;;;;;;20.23;9.63;;;16.20;99.90;;;;;;5064641;28;20055;-46
2022/10/21 12:18:57;;;;;;;15.73;8.15;;;16.20;99.90;;;;;;5065632;28;20044;-47
2022/10/21 12:21:27;;;;;;;13.90;8.77;;;16.20;99.90;;;;;;5068343;28;20086;-47
2022/10/21 12:24:12;;;;;;;15.60;8.55;;;16.20;99.90;;;;;;5069568;28;20095;-45
2022/10/21 12:26:55;;;;;;;10.60;7.78;;;16.20;99.90;;;;;;5069701;28;20041;-47
2022/10/21 12:29:41;;;;;;;14.93;8.25;;;16.20;99.90;;;;;;5069413;28;20044;-47
2022/10/21 12:32:28;;;;;;;11.90;7.57;;;16.20;99.90;;;;;;5068004;28;20053;-45
2022/10/21 12:34:55;;;;;;;12.75;8.05;;;16.10;99.90;;;;;;5053902;28;20040;-45
2022/10/21 12:37:44;;;;;;;15.05;8.43;;;16.20;99.90;;;;;;5049412;28;20045;-46
2022/10/21 12:40:24;;;;;;;12.23;8.35;;;16.10;99.90;;;;;;5049097;28;20450;-46
2022/10/21 12:43:00;;;;;;;13.45;7.57;;;16.10;99.90;;;;;;5048825;28;20487;-47
2022/10/21 12:45:31;;;;;;;13.98;7.20;;;16.20;99.90;;;;;;5049228;28;20539;-45